Time;durP1;ratioP1;P1;durP2;ratioP2;P2;SDS_P1;SDS_P2;PMS_P1;PMS_P2;Temp;Humidity;BMP_temperature;BMP_pressure;BME280_temperature;BME280_humidity;BME280_pressure;Samples;Min_cycle;Max_cycle;Signal;HPM_P1;HPM_P2
2023/04/07 00:01:01;;;;;;;;;;;;;;;4.16;91.78;95643.09;10514281;28;2904;-72
2023/04/07 00:06:03;;;;;;;;;;;;;;;4.20;91.70;95638.94;10496556;28;3703;-72
2023/04/07 00:11:08;;;;;;;;;;;;;;;4.34;90.97;95640.28;10504265;28;3264;-72
2023/04/07 00:16:11;;;;;;;;;;;;;;;4.45;91.24;95638.59;10492128;28;2808;-72
2023/04/07 00:21:14;;;;;;;;;;;;;;;4.58;91.13;95641.00;10513039;28;3306;-72
2023/04/07 00:26:17;;;;;;;;;;;;;;;4.66;91.15;95637.13;10517525;28;2906;-71
2023/04/07 00:31:19;;;;;;;;;;;;;;;4.62;92.12;95635.97;10518096;28;2329;-73
2023/04/07 00:36:23;;;;;;;;;;;;;;;4.59;94.27;95631.16;10513789;28;2418;-71
2023/04/07 00:41:25;;;;;;;;;;;;;;;4.57;94.29;95639.34;10501806;28;3275;-72
2023/04/07 00:46:27;;;;;;;;;;;;;;;4.56;95.79;95627.09;10512646;28;2310;-74
2023/04/07 00:51:31;;;;;;;;;;;;;;;4.52;97.37;95619.84;10508731;28;2852;-73
2023/04/07 00:56:34;;;;;;;;;;;;;;;4.39;99.71;95620.94;10516776;28;2316;-72
2023/04/07 01:01:46;;;;;;;;;;;;;;;4.44;99.62;95613.03;10506763;28;2887;-73
2023/04/07 01:06:49;;;;;;;;;;;;;;;4.41;100.00;95610.06;10537763;28;2927;-75
2023/04/07 01:11:52;;;;;;;;;;;;;;;4.44;100.00;95602.38;10524157;28;3279;-72
2023/04/07 01:16:55;;;;;;;;;;;;;;;4.47;99.57;95601.91;10522333;28;2299;-71
2023/04/07 01:21:57;;;;;;;;;;;;;;;4.48;100.00;95613.38;10519174;28;3489;-72
2023/04/07 01:27:01;;;;;;;;;;;;;;;4.40;100.00;95609.25;10525649;28;3356;-71
2023/04/07 01:32:03;;;;;;;;;;;;;;;4.34;100.00;95612.84;10525715;28;2903;-72
2023/04/07 01:37:06;;;;;;;;;;;;;;;4.21;100.00;95602.50;10519256;28;3424;-72
2023/04/07 01:42:08;;;;;;;;;;;;;;;4.09;100.00;95607.84;10516930;28;2887;-72
2023/04/07 01:47:11;;;;;;;;;;;;;;;4.16;100.00;95605.88;10522594;28;2819;-72
2023/04/07 01:52:14;;;;;;;;;;;;;;;4.15;100.00;95603.44;10522064;28;3267;-71
2023/04/07 01:57:17;;;;;;;;;;;;;;;4.15;100.00;95600.78;10523355;28;3572;-72
2023/04/07 02:02:19;;;;;;;;;;;;;;;4.12;100.00;95593.25;10528221;28;3314;-71
2023/04/07 02:07:22;;;;;;;;;;;;;;;4.13;100.00;95593.03;10528050;28;3481;-72
2023/04/07 02:12:25;;;;;;;;;;;;;;;4.19;100.00;95592.06;10518182;28;3466;-72
2023/04/07 02:17:37;;;;;;;;;;;;;;;4.20;100.00;95582.22;10520924;28;2848;-71
2023/04/07 02:22:41;;;;;;;;;;;;;;;4.29;100.00;95592.28;10517167;28;2937;-72
2023/04/07 02:27:44;;;;;;;;;;;;;;;4.31;100.00;95595.50;10520305;28;2890;-71
2023/04/07 02:32:47;;;;;;;;;;;;;;;4.41;100.00;95584.25;10505264;28;3358;-72
2023/04/07 02:37:50;;;;;;;;;;;;;;;4.48;100.00;95589.41;10519679;28;2873;-72
2023/04/07 02:42:53;;;;;;;;;;;;;;;4.56;100.00;95594.34;10511582;28;3296;-72
2023/04/07 02:47:55;;;;;;;;;;;;;;;4.57;100.00;95585.31;10514279;28;3307;-72
2023/04/07 02:52:58;;;;;;;;;;;;;;;4.67;100.00;95579.34;10517767;28;2307;-71
2023/04/07 02:58:02;;;;;;;;;;;;;;;4.71;100.00;95586.63;10518350;28;3312;-72
2023/04/07 03:03:05;;;;;;;;;;;;;;;4.79;100.00;95583.56;10522839;28;2836;-74
2023/04/07 03:08:08;;;;;;;;;;;;;;;4.84;100.00;95580.97;10497577;28;3391;-72
2023/04/07 03:13:15;;;;;;;;;;;;;;;4.78;100.00;95573.16;10519053;28;2847;-72
2023/04/07 03:18:17;;;;;;;;;;;;;;;4.84;100.00;95580.97;10522513;28;2878;-72
2023/04/07 03:23:22;;;;;;;;;;;;;;;4.78;100.00;95579.28;10518180;28;3291;-72
2023/04/07 03:28:25;;;;;;;;;;;;;;;4.74;100.00;95574.69;10521188;28;3454;-71
2023/04/07 03:33:28;;;;;;;;;;;;;;;4.80;100.00;95576.38;10518430;28;2871;-74
2023/04/07 03:38:30;;;;;;;;;;;;;;;4.78;100.00;95576.63;10525151;28;3296;-72
2023/04/07 03:43:33;;;;;;;;;;;;;;;4.73;100.00;95565.06;10505497;28;2314;-73
2023/04/07 03:48:35;;;;;;;;;;;;;;;4.67;100.00;95569.50;10519680;28;3295;-74
2023/04/07 03:53:38;;;;;;;;;;;;;;;4.71;100.00;95560.00;10512770;28;3326;-75
2023/04/07 03:58:41;;;;;;;;;;;;;;;4.63;100.00;95571.03;10523208;28;3419;-73
2023/04/07 04:03:43;;;;;;;;;;;;;;;4.60;100.00;95563.53;10513838;28;2882;-73
2023/04/07 04:08:47;;;;;;;;;;;;;;;4.52;100.00;95556.75;10519980;28;3338;-72
2023/04/07 04:13:50;;;;;;;;;;;;;;;4.55;100.00;95558.13;10521184;28;2887;-71
2023/04/07 04:18:54;;;;;;;;;;;;;;;4.54;100.00;95553.84;10518988;28;3430;-72
2023/04/07 04:23:57;;;;;;;;;;;;;;;4.51;100.00;95560.44;10522514;28;3299;-73
2023/04/07 04:28:59;;;;;;;;;;;;;;;4.60;100.00;95552.88;10514149;28;3411;-72
2023/04/07 04:34:03;;;;;;;;;;;;;;;4.58;100.00;95565.63;10504628;28;2816;-72
2023/04/07 04:39:05;;;;;;;;;;;;;;;4.66;100.00;95554.59;10513419;28;3350;-71
2023/04/07 04:44:07;;;;;;;;;;;;;;;4.63;100.00;95551.59;10517198;28;3041;-71
2023/04/07 04:49:11;;;;;;;;;;;;;;;4.71;100.00;95544.03;10521791;28;2404;-71
2023/04/07 04:54:13;;;;;;;;;;;;;;;4.75;100.00;95553.13;10523381;28;2848;-73
2023/04/07 04:59:16;;;;;;;;;;;;;;;4.63;100.00;95546.25;10529518;28;2792;-74
2023/04/07 05:04:19;;;;;;;;;;;;;;;4.67;100.00;95556.19;10532901;28;3264;-73
2023/04/07 05:09:23;;;;;;;;;;;;;;;4.64;100.00;95548.69;10525588;28;2882;-74
2023/04/07 05:14:25;;;;;;;;;;;;;;;4.65;100.00;95547.66;10528990;28;2878;-71
2023/04/07 05:19:28;;;;;;;;;;;;;;;4.64;100.00;95546.00;10527104;28;2867;-72
2023/04/07 05:24:31;;;;;;;;;;;;;;;4.62;100.00;95548.13;10517942;28;2281;-74
2023/04/07 05:29:34;;;;;;;;;;;;;;;4.60;100.00;95539.56;10524580;28;2282;-72
2023/04/07 05:34:36;;;;;;;;;;;;;;;4.53;100.00;95547.72;10515276;28;3382;-73
2023/04/07 05:39:39;;;;;;;;;;;;;;;4.52;100.00;95553.28;10510925;28;3284;-73
2023/04/07 05:44:42;;;;;;;;;;;;;;;4.56;100.00;95546.41;10502935;28;2820;-73
2023/04/07 05:49:46;;;;;;;;;;;;;;;4.63;100.00;95547.06;10502532;28;3212;-73
2023/04/07 05:54:48;;;;;;;;;;;;;;;4.94;100.00;95540.38;10503566;28;3274;-73
2023/04/07 05:59:51;;;;;;;;;;;;;;;5.26;100.00;95524.56;10523199;28;2293;-74
2023/04/07 06:04:53;;;;;;;;;;;;;;;5.48;100.00;95524.59;10531946;28;1907;-72
2023/04/07 06:09:56;;;;;;;;;;;;;;;5.77;100.00;95527.06;10508563;28;1485;-73
2023/04/07 06:14:59;;;;;;;;;;;;;;;5.99;100.00;95516.44;10517034;28;1321;-75
2023/04/07 06:20:01;;;;;;;;;;;;;;;6.17;100.00;95519.56;10528393;28;1452;-75
2023/04/07 06:25:04;;;;;;;;;;;;;;;6.20;100.00;95520.91;10521749;28;1913;-73
2023/04/07 06:30:06;;;;;;;;;;;;;;;6.17;100.00;95521.41;10523782;28;1523;-76
2023/04/07 06:35:10;;;;;;;;;;;;;;;6.21;100.00;95509.16;10536288;28;1518;-78
2023/04/07 06:40:12;;;;;;;;;;;;;;;6.15;100.00;95502.16;10531022;28;1447;-79
2023/04/07 06:45:15;;;;;;;;;;;;;;;6.59;100.00;95510.03;10530834;28;1973;-79
2023/04/07 06:50:19;;;;;;;;;;;;;;;7.00;100.00;95489.78;10537721;28;1534;-79
2023/04/07 06:55:23;;;;;;;;;;;;;;;7.19;100.00;95493.66;10520743;28;1226;-80
2023/04/07 07:00:29;;;;;;;;;;;;;;;7.00;100.00;95495.94;10535605;28;1438;-79
2023/04/07 07:05:32;;;;;;;;;;;;;;;7.34;100.00;95492.91;10510151;28;1967;-78
2023/04/07 07:10:34;;;;;;;;;;;;;;;7.85;100.00;95482.44;10516267;28;1483;-79
2023/04/07 07:15:38;;;;;;;;;;;;;;;7.71;100.00;95495.50;10530799;28;1101;-77
2023/04/07 07:20:41;;;;;;;;;;;;;;;7.90;100.00;95493.16;10531614;28;1384;-78
2023/04/07 07:25:43;;;;;;;;;;;;;;;7.96;100.00;95494.78;10529003;28;1914;-79
2023/04/07 07:30:47;;;;;;;;;;;;;;;8.54;100.00;95497.31;10522069;28;1460;-80
2023/04/07 07:35:54;;;;;;;;;;;;;;;8.67;100.00;95491.44;10532501;28;1399;-79
2023/04/07 07:40:57;;;;;;;;;;;;;;;8.97;100.00;95490.59;10509126;28;1448;-78
2023/04/07 07:46:00;;;;;;;;;;;;;;;9.47;100.00;95494.25;10522898;28;1906;-78
2023/04/07 07:51:03;;;;;;;;;;;;;;;9.83;100.00;95494.91;10519327;28;1556;-80
2023/04/07 07:56:06;;;;;;;;;;;;;;;9.71;100.00;95497.91;10505370;28;1005;-79
2023/04/07 08:01:08;;;;;;;;;;;;;;;9.87;100.00;95498.66;10527928;28;1464;-80
2023/04/07 08:06:11;;;;;;;;;;;;;;;9.79;100.00;95501.09;10518471;28;1894;-79
2023/04/07 08:11:15;;;;;;;;;;;;;;;9.76;100.00;95491.72;10524310;28;1519;-77
2023/04/07 08:16:19;;;;;;;;;;;;;;;9.68;100.00;95489.63;10505044;28;1119;-79
2023/04/07 08:21:21;;;;;;;;;;;;;;;9.46;100.00;95493.44;10517597;28;1988;-79
2023/04/07 08:26:25;;;;;;;;;;;;;;;9.59;100.00;95496.63;10522149;28;1447;-78
2023/04/07 08:31:28;;;;;;;;;;;;;;;9.56;100.00;95491.81;10526044;28;1254;-80
2023/04/07 08:36:30;;;;;;;;;;;;;;;10.00;99.06;95481.97;10525599;28;1441;-80
2023/04/07 08:41:34;;;;;;;;;;;;;;;10.67;93.87;95485.03;10518249;28;1910;-80
2023/04/07 08:46:37;;;;;;;;;;;;;;;10.81;91.53;95477.13;10500902;28;1159;-77
2023/04/07 08:51:39;;;;;;;;;;;;;;;10.63;90.73;95477.84;10540715;28;1365;-78
2023/04/07 08:56:42;;;;;;;;;;;;;;;11.63;86.04;95469.03;10526124;28;1454;-79
2023/04/07 09:01:45;;;;;;;;;;;;;;;11.97;79.46;95473.50;10524566;28;1979;-78
2023/04/07 09:06:48;;;;;;;;;;;;;;;11.70;80.00;95479.44;10529974;28;1186;-82
2023/04/07 09:11:51;;;;;;;;;;;;;;;10.86;84.62;95470.91;10537820;28;1566;-78
2023/04/07 09:16:53;;;;;;;;;;;;;;;10.92;85.57;95480.53;10513770;28;1124;-77
2023/04/07 09:21:56;;;;;;;;;;;;;;;10.29;87.10;95479.38;10521599;28;1974;-79
2023/04/07 09:26:58;;;;;;;;;;;;;;;10.24;89.80;95487.50;10541392;28;1503;-78
2023/04/07 09:32:04;;;;;;;;;;;;;;;10.20;87.52;95475.66;10528543;28;1135;-79
2023/04/07 09:37:08;;;;;;;;;;;;;;;10.72;85.77;95466.19;10533785;28;1487;-79
2023/04/07 09:42:10;;;;;;;;;;;;;;;11.28;80.37;95467.56;10555594;28;1886;-80
2023/04/07 09:47:13;;;;;;;;;;;;;;;10.94;83.77;95459.53;10554637;28;1448;-78
2023/04/07 09:52:18;;;;;;;;;;;;;;;11.53;78.58;95447.63;10536652;28;1116;-79
2023/04/07 09:57:22;;;;;;;;;;;;;;;11.84;75.21;95446.19;10520047;28;1451;-79
2023/04/07 10:02:25;;;;;;;;;;;;;;;11.27;76.26;95447.91;10535049;28;1914;-79
2023/04/07 10:07:28;;;;;;;;;;;;;;;10.96;74.18;95452.00;10515130;28;1167;-80
2023/04/07 10:12:30;;;;;;;;;;;;;;;11.96;70.00;95440.41;10508748;28;1561;-79
2023/04/07 10:17:34;;;;;;;;;;;;;;;11.88;69.05;95444.50;10522927;28;1451;-78
2023/04/07 10:22:36;;;;;;;;;;;;;;;11.87;68.16;95442.91;10532683;28;1913;-80
2023/04/07 10:27:38;;;;;;;;;;;;;;;12.04;69.60;95444.31;10520874;28;1565;-78
2023/04/07 10:32:41;;;;;;;;;;;;;;;12.71;65.43;95436.81;10530722;28;1132;-78
2023/04/07 10:37:43;;;;;;;;;;;;;;;11.98;69.13;95432.81;10521677;28;1518;-79
2023/04/07 10:42:46;;;;;;;;;;;;;;;12.22;68.63;95438.13;10536866;28;1910;-79
2023/04/07 10:47:49;;;;;;;;;;;;;;;11.36;72.76;95435.44;10518783;28;1120;-80
2023/04/07 10:52:51;;;;;;;;;;;;;;;11.07;73.19;95434.69;10519011;28;1470;-79
2023/04/07 10:57:53;;;;;;;;;;;;;;;11.85;71.10;95423.56;10520058;28;1519;-81
2023/04/07 11:02:56;;;;;;;;;;;;;;;12.01;69.73;95429.53;10508182;28;1995;-79
2023/04/07 11:08:01;;;;;;;;;;;;;;;11.71;70.26;95421.84;10521893;28;1450;-77
2023/04/07 11:13:04;;;;;;;;;;;;;;;11.95;69.29;95425.28;10527762;28;1462;-79
2023/04/07 11:18:06;;;;;;;;;;;;;;;12.47;65.75;95419.97;10528103;28;1167;-79
2023/04/07 11:23:08;;;;;;;;;;;;;;;13.16;62.47;95413.63;10518916;28;1993;-79
2023/04/07 11:28:12;;;;;;;;;;;;;;;13.01;63.04;95405.03;10527887;28;1451;-80
2023/04/07 11:33:14;;;;;;;;;;;;;;;13.25;62.01;95405.69;10529632;28;1179;-79
2023/04/07 11:38:16;;;;;;;;;;;;;;;13.18;62.05;95405.28;10532663;28;1503;-79
2023/04/07 11:43:19;;;;;;;;;;;;;;;13.41;61.39;95408.88;10511364;28;2796;-79
2023/04/07 11:48:22;;;;;;;;;;;;;;;13.36;59.70;95411.69;10505166;28;1464;-79
2023/04/07 11:53:24;;;;;;;;;;;;;;;14.24;59.70;95409.56;10519639;28;1156;-78
2023/04/07 11:58:27;;;;;;;;;;;;;;;15.06;55.43;95398.38;10518933;28;1494;-79
2023/04/07 12:03:30;;;;;;;;;;;;;;;14.77;54.53;95395.38;10518546;28;1957;-80
2023/04/07 12:08:33;;;;;;;;;;;;;;;14.45;54.71;95393.69;10530356;28;1670;-79
2023/04/07 12:13:35;;;;;;;;;;;;;;;14.36;54.27;95393.59;10533850;28;1689;-81
2023/04/07 12:18:38;;;;;;;;;;;;;;;13.57;57.59;95395.91;10535734;28;1436;-79
2023/04/07 12:23:40;;;;;;;;;;;;;;;13.40;58.74;95386.50;10533228;28;1984;-79
2023/04/07 12:28:44;;;;;;;;;;;;;;;13.89;57.52;95387.66;10533833;28;1878;-78
2023/04/07 12:33:46;;;;;;;;;;;;;;;13.12;59.28;95401.06;10535993;28;1127;-80
2023/04/07 12:38:49;;;;;;;;;;;;;;;13.15;58.99;95395.06;10527656;28;1427;-80
2023/04/07 12:43:52;;;;;;;;;;;;;;;13.32;59.47;95389.09;10521951;28;1980;-81
2023/04/07 12:48:55;;;;;;;;;;;;;;;13.07;59.47;95395.75;10521023;28;1372;-78
2023/04/07 12:53:59;;;;;;;;;;;;;;;13.44;57.96;95392.09;10530117;28;1195;-80
2023/04/07 12:59:02;;;;;;;;;;;;;;;13.79;56.64;95382.44;10529148;28;1373;-79
2023/04/07 13:04:04;;;;;;;;;;;;;;;13.24;58.62;95396.00;10531702;28;1976;-79
2023/04/07 13:09:07;;;;;;;;;;;;;;;12.67;60.47;95393.50;10540392;28;1561;-79
2023/04/07 13:14:09;;;;;;;;;;;;;;;12.20;62.51;95401.78;10525757;28;1700;-78
2023/04/07 13:19:12;;;;;;;;;;;;;;;11.70;65.00;95399.47;10524165;28;1396;-80
2023/04/07 13:24:15;;;;;;;;;;;;;;;11.62;67.22;95398.25;10509425;28;1914;-79
2023/04/07 13:29:18;;;;;;;;;;;;;;;11.82;67.57;95401.78;10530269;28;1520;-80
2023/04/07 13:34:21;;;;;;;;;;;;;;;11.63;70.58;95404.41;10508531;28;1132;-78
2023/04/07 13:39:23;;;;;;;;;;;;;;;11.86;71.52;95400.91;10512670;28;1451;-80
2023/04/07 13:44:26;;;;;;;;;;;;;;;12.10;69.88;95386.59;10530939;28;2269;-79
2023/04/07 13:49:29;;;;;;;;;;;;;;;12.03;70.05;95391.53;10527906;28;1654;-79
2023/04/07 13:54:32;;;;;;;;;;;;;;;12.43;69.03;95385.50;10515900;28;1140;-79
2023/04/07 13:59:35;;;;;;;;;;;;;;;12.26;67.31;95382.56;10512947;28;1471;-79
2023/04/07 14:04:37;;;;;;;;;;;;;;;12.01;68.50;95393.72;10515798;28;1914;-79
2023/04/07 14:09:41;;;;;;;;;;;;;;;11.64;72.43;95390.69;10528268;28;1638;-79
2023/04/07 14:14:44;;;;;;;;;;;;;;;11.97;70.94;95403.47;10531580;28;1556;-79
2023/04/07 14:19:48;;;;;;;;;;;;;;;12.32;70.49;95392.16;10530108;28;1049;-81
2023/04/07 14:24:50;;;;;;;;;;;;;;;12.10;70.71;95394.66;10539276;28;1963;-79
2023/04/07 14:30:03;;;;;;;;;;;;;;;11.94;71.70;95394.06;10528192;28;1511;-80
2023/04/07 14:35:05;;;;;;;;;;;;;;;11.93;71.24;95392.47;10505323;28;1136;-79
2023/04/07 14:40:08;;;;;;;;;;;;;;;12.09;70.66;95390.38;10513678;28;1448;-79
2023/04/07 14:45:11;;;;;;;;;;;;;;;11.77;70.24;95394.56;10526819;28;1925;-79
2023/04/07 14:50:14;;;;;;;;;;;;;;;11.48;72.40;95394.66;10520726;28;1432;-78
2023/04/07 14:55:17;;;;;;;;;;;;;;;11.72;70.59;95399.22;10520635;28;1124;-79
2023/04/07 15:00:19;;;;;;;;;;;;;;;11.31;74.19;95395.13;10527709;28;1456;-80
2023/04/07 15:05:22;;;;;;;;;;;;;;;11.37;75.63;95407.41;10517308;28;1983;-79
2023/04/07 15:10:25;;;;;;;;;;;;;;;11.09;77.28;95409.09;10537446;28;1526;-78
2023/04/07 15:15:28;;;;;;;;;;;;;;;10.82;82.26;95406.94;10521253;28;1432;-79
2023/04/07 15:20:31;;;;;;;;;;;;;;;10.73;86.05;95411.31;10529360;28;1440;-80
2023/04/07 15:25:35;;;;;;;;;;;;;;;11.17;85.62;95410.34;10519325;28;1971;-80
2023/04/07 15:30:38;;;;;;;;;;;;;;;10.85;83.29;95418.22;10550521;28;1486;-80
2023/04/07 15:35:40;;;;;;;;;;;;;;;10.61;85.51;95418.97;10560946;28;1372;-78
2023/04/07 15:40:44;;;;;;;;;;;;;;;10.98;84.63;95414.84;10545900;28;1563;-79
2023/04/07 15:45:46;;;;;;;;;;;;;;;10.73;87.20;95427.44;10524479;28;1973;-79
2023/04/07 15:50:50;;;;;;;;;;;;;;;11.02;86.91;95413.22;10520468;28;1372;-79
2023/04/07 15:55:53;;;;;;;;;;;;;;;10.63;88.97;95430.25;10507451;28;1943;-79
2023/04/07 16:00:57;;;;;;;;;;;;;;;10.67;89.65;95425.91;10525823;28;1507;-79
2023/04/07 16:06:00;;;;;;;;;;;;;;;10.47;92.37;95431.44;10512956;28;1918;-79
2023/04/07 16:11:03;;;;;;;;;;;;;;;10.88;91.21;95431.91;10503059;28;1765;-79
2023/04/07 16:16:15;;;;;;;;;;;;;;;10.46;94.14;95429.84;10515830;28;1586;-78
2023/04/07 16:21:19;;;;;;;;;;;;;;;10.15;98.29;95432.72;10513166;28;1475;-79
2023/04/07 16:26:22;;;;;;;;;;;;;;;10.40;97.42;95436.34;10531753;28;1973;-79
2023/04/07 16:31:35;;;;;;;;;;;;;;;10.22;97.79;95446.63;10508902;28;1060;-79
2023/04/07 16:36:37;;;;;;;;;;;;;;;9.99;100.00;95448.13;10529276;28;1440;-79
2023/04/07 16:41:41;;;;;;;;;;;;;;;10.00;100.00;95451.63;10523069;28;1471;-79
2023/04/07 16:46:44;;;;;;;;;;;;;;;9.81;100.00;95462.19;10526153;28;2003;-78
2023/04/07 16:51:47;;;;;;;;;;;;;;;9.68;100.00;95455.53;10527245;28;1412;-79
2023/04/07 16:56:50;;;;;;;;;;;;;;;9.53;100.00;95463.63;10529528;28;1221;-79
2023/04/07 17:01:53;;;;;;;;;;;;;;;9.37;100.00;95467.47;10541145;28;1080;-79
2023/04/07 17:06:56;;;;;;;;;;;;;;;9.31;100.00;95472.03;10528643;28;1975;-79
2023/04/07 17:12:00;;;;;;;;;;;;;;;9.25;100.00;95475.00;10528237;28;1549;-79
2023/04/07 17:17:02;;;;;;;;;;;;;;;9.19;100.00;95477.69;10520066;28;1194;-79
2023/04/07 17:22:05;;;;;;;;;;;;;;;9.02;100.00;95487.91;10536319;28;1068;-78
2023/04/07 17:27:08;;;;;;;;;;;;;;;8.94;100.00;95491.13;10535110;28;1910;-79
2023/04/07 17:32:11;;;;;;;;;;;;;;;8.87;100.00;95495.97;10535400;28;1136;-79
2023/04/07 17:37:14;;;;;;;;;;;;;;;8.72;100.00;95494.09;10529374;28;1435;-79
2023/04/07 17:42:16;;;;;;;;;;;;;;;8.63;100.00;95496.50;10517960;28;1443;-79
2023/04/07 17:47:19;;;;;;;;;;;;;;;8.62;100.00;95499.47;10550256;28;1934;-79
2023/04/07 17:52:22;;;;;;;;;;;;;;;8.51;100.00;95519.25;10532336;28;1495;-78
2023/04/07 17:57:24;;;;;;;;;;;;;;;8.46;100.00;95517.41;10533999;28;1417;-80
2023/04/07 18:02:27;;;;;;;;;;;;;;;8.38;100.00;95524.06;10514668;28;1182;-79
2023/04/07 18:07:32;;;;;;;;;;;;;;;8.35;100.00;95531.81;10513118;28;1973;-79
2023/04/07 18:12:35;;;;;;;;;;;;;;;8.29;100.00;95532.88;10516627;28;1424;-79
2023/04/07 18:17:37;;;;;;;;;;;;;;;8.27;100.00;95546.53;10538939;28;1448;-77
2023/04/07 18:22:39;;;;;;;;;;;;;;;8.29;100.00;95544.38;10509889;28;1152;-80
2023/04/07 18:27:42;;;;;;;;;;;;;;;8.33;100.00;95555.34;10558323;28;1968;-79
2023/04/07 18:32:45;;;;;;;;;;;;;;;8.41;100.00;95560.25;10538863;28;1174;-80
2023/04/07 18:37:48;;;;;;;;;;;;;;;8.36;100.00;95562.91;10532396;28;1736;-79
2023/04/07 18:42:51;;;;;;;;;;;;;;;8.41;100.00;95572.84;10518774;28;1460;-79
2023/04/07 18:47:53;;;;;;;;;;;;;;;8.37;100.00;95573.34;10540336;28;1925;-79
2023/04/07 18:52:56;;;;;;;;;;;;;;;8.33;100.00;95582.13;10534376;28;1461;-79
2023/04/07 18:57:58;;;;;;;;;;;;;;;8.37;100.00;95589.41;10510973;28;1436;-80
2023/04/07 19:03:01;;;;;;;;;;;;;;;8.37;100.00;95593.97;10507757;28;1175;-79
2023/04/07 19:08:04;;;;;;;;;;;;;;;8.37;100.00;95593.97;10530371;28;1917;-79
2023/04/07 19:13:07;;;;;;;;;;;;;;;8.31;100.00;95600.34;10521766;28;1553;-77
2023/04/07 19:18:10;;;;;;;;;;;;;;;8.33;100.00;95600.88;10535329;28;1439;-79
2023/04/07 19:23:12;;;;;;;;;;;;;;;8.11;100.00;95607.25;10533292;28;1171;-79
2023/04/07 19:28:15;;;;;;;;;;;;;;;8.19;100.00;95605.13;10527340;28;1914;-77
2023/04/07 19:33:18;;;;;;;;;;;;;;;8.13;100.00;95615.81;10513830;28;1476;-78
2023/04/07 19:38:23;;;;;;;;;;;;;;;8.03;100.00;95615.78;10519353;28;1207;-78
2023/04/07 19:43:25;;;;;;;;;;;;;;;8.15;100.00;95628.16;10526945;28;1468;-79
2023/04/07 19:48:29;;;;;;;;;;;;;;;8.08;100.00;95629.19;10515461;28;1984;-78
2023/04/07 19:53:31;;;;;;;;;;;;;;;8.02;100.00;95630.25;10515687;28;1642;-78
2023/04/07 19:58:36;;;;;;;;;;;;;;;7.97;100.00;95632.88;10520884;28;1451;-80
2023/04/07 20:03:41;;;;;;;;;;;;;;;8.05;100.00;95634.25;10508532;28;1140;-79
2023/04/07 20:08:45;;;;;;;;;;;;;;;8.03;100.00;95629.16;10515575;28;1981;-79
2023/04/07 20:13:47;;;;;;;;;;;;;;;8.01;100.00;95627.81;10514466;28;1638;-78
2023/04/07 20:18:49;;;;;;;;;;;;;;;7.90;100.00;95632.31;10533186;28;1392;-78
2023/04/07 20:23:52;;;;;;;;;;;;;;;7.85;100.00;95634.97;10520114;28;1460;-80
2023/04/07 20:28:55;;;;;;;;;;;;;;;7.77;100.00;95636.25;10537162;28;1910;-79
2023/04/07 20:33:57;;;;;;;;;;;;;;;7.78;100.00;95650.44;10531399;28;1495;-79
2023/04/07 20:39:01;;;;;;;;;;;;;;;7.73;100.00;95647.72;10524394;28;1156;-79
2023/04/07 20:44:04;;;;;;;;;;;;;;;7.62;100.00;95641.50;10531713;28;1781;-79
2023/04/07 20:49:07;;;;;;;;;;;;;;;7.57;100.00;95649.50;10524505;28;1914;-79
2023/04/07 20:54:10;;;;;;;;;;;;;;;7.42;100.00;95650.19;10525851;28;1218;-78
2023/04/07 20:59:12;;;;;;;;;;;;;;;7.36;100.00;95643.19;10524143;28;1582;-79
2023/04/07 21:04:15;;;;;;;;;;;;;;;7.15;100.00;95650.25;10509379;28;1144;-79
2023/04/07 21:09:18;;;;;;;;;;;;;;;6.86;100.00;95652.41;10523569;28;1993;-78
2023/04/07 21:14:20;;;;;;;;;;;;;;;6.78;100.00;95658.19;10525752;28;1136;-77
2023/04/07 21:19:23;;;;;;;;;;;;;;;6.53;100.00;95660.59;10564322;28;1393;-78
2023/04/07 21:24:26;;;;;;;;;;;;;;;6.38;100.00;95664.72;10549402;28;1427;-79
2023/04/07 21:29:29;;;;;;;;;;;;;;;6.18;100.00;95667.16;10517829;28;1886;-78
2023/04/07 21:34:32;;;;;;;;;;;;;;;5.93;100.00;95660.44;10532673;28;1420;-78
2023/04/07 21:39:40;;;;;;;;;;;;;;;5.86;100.00;95659.78;10512340;28;1507;-78
2023/04/07 21:44:45;;;;;;;;;;;;;;;5.77;100.00;95663.91;10534266;28;1981;-79
2023/04/07 21:49:47;;;;;;;;;;;;;;;5.63;100.00;95666.13;10505481;28;1435;-78
2023/04/07 21:54:50;;;;;;;;;;;;;;;5.56;100.00;95675.34;10520567;28;1163;-79
2023/04/07 21:59:52;;;;;;;;;;;;;;;5.45;100.00;95671.72;10513800;28;1465;-79
2023/04/07 22:04:55;;;;;;;;;;;;;;;5.28;100.00;95679.72;10509300;28;1914;-78
2023/04/07 22:09:58;;;;;;;;;;;;;;;5.20;100.00;95679.31;10528569;28;1439;-78
2023/04/07 22:15:01;;;;;;;;;;;;;;;5.19;100.00;95678.50;10521951;28;1136;-80
2023/04/07 22:20:03;;;;;;;;;;;;;;;5.06;100.00;95678.81;10525067;28;1515;-78
2023/04/07 22:25:06;;;;;;;;;;;;;;;4.97;100.00;95686.41;10526771;28;1984;-79
2023/04/07 22:30:09;;;;;;;;;;;;;;;4.92;100.00;95682.84;10523657;28;1570;-77
2023/04/07 22:35:12;;;;;;;;;;;;;;;4.83;100.00;95680.53;10519590;28;1128;-78
2023/04/07 22:40:16;;;;;;;;;;;;;;;4.76;100.00;95692.41;10519581;28;1443;-79
2023/04/07 22:45:18;;;;;;;;;;;;;;;4.71;100.00;95698.47;10515284;28;1969;-78
2023/04/07 22:50:22;;;;;;;;;;;;;;;4.61;100.00;95699.06;10529640;28;1527;-79
2023/04/07 22:55:24;;;;;;;;;;;;;;;4.59;100.00;95705.69;10528524;28;1223;-79
2023/04/07 23:00:27;;;;;;;;;;;;;;;4.63;100.00;95704.16;10529292;28;1431;-79
2023/04/07 23:05:39;;;;;;;;;;;;;;;4.62;100.00;95707.84;10529961;28;1971;-79
2023/04/07 23:10:43;;;;;;;;;;;;;;;4.56;100.00;95709.63;10529487;28;1436;-79
2023/04/07 23:15:46;;;;;;;;;;;;;;;4.51;100.00;95708.69;10520581;28;1036;-80
2023/04/07 23:20:51;;;;;;;;;;;;;;;4.51;100.00;95714.03;10529549;28;1491;-80
2023/04/07 23:25:54;;;;;;;;;;;;;;;4.43;100.00;95722.41;10531785;28;1902;-80
2023/04/07 23:30:57;;;;;;;;;;;;;;;4.42;100.00;95720.78;10521916;28;1482;-77
2023/04/07 23:36:01;;;;;;;;;;;;;;;4.41;100.00;95721.81;10530073;28;1491;-77
2023/04/07 23:41:03;;;;;;;;;;;;;;;4.33;100.00;95723.00;10520070;28;1491;-78
2023/04/07 23:46:06;;;;;;;;;;;;;;;4.38;100.00;95723.09;10523734;28;1919;-79
2023/04/07 23:51:08;;;;;;;;;;;;;;;4.38;100.00;95720.44;10520928;28;1472;-78
2023/04/07 23:56:10;;;;;;;;;;;;;;;4.43;100.00;95733.03;10515617;28;1522;-78
